»·PEaware :: N1127N KSNA-KSMO

N1127N :: KSNA-KSMO

FLIGHT INFORMATION

Flight Status: Arrived
Operator: Privately registered:
United States
More flights under this callsign
Pilot: Alexander M. (19327)
Aircraft: CESSNA 550 CITATION 2/S2/BRAVO
(C550)
More flights by this aircraft type
Origin: KSNA John Wayne-Orange Co
United States
Destination: KSMO Santa Monica Mun
United States
More flights between these airports :: More routes between these airports
Route: +SNA SLI V459 DARTS SMO
File this flight plan on PilotEdge
Remarks: Pilotedge I-04 Rating...on stream! twitch.tv / allaboutflight
Altitude:
(Current/Filed)
6,000ft
Speed:
(Current/Filed)
220kts
Departed: 29-Oct-18 03:40 PM
Arrived: 29-Oct-18 04:10 PM
Distance/Time
Traveled:
40nm/0:30
Distance/Time
To Go:
Arrived

Flight Plot

Page will automatically refresh every two minutes.

Flight plan parsing failed; only flown route is shown


Map Options




Map Legend


Flown Route
Filed Route
Departure Airport
Arrival Airport
Navaid (VOR, NDB)
Fix

Horizontal Profiles

Position Reports

Time Latitude Longitude Heading Altitude Ground
Speed
29-Oct-18 15:11 33.673825 -117.872230 118 61ft 0kts
29-Oct-18 15:12 33.673825 -117.872230 118 61ft 0kts
29-Oct-18 15:13 33.673825 -117.872230 118 61ft 0kts
29-Oct-18 15:14 33.673825 -117.872230 118 61ft 0kts
29-Oct-18 15:15 33.673825 -117.872230 118 61ft 0kts
29-Oct-18 15:16 33.673825 -117.872230 118 61ft 0kts
29-Oct-18 15:17 33.673825 -117.872230 118 61ft 0kts
29-Oct-18 15:18 33.673825 -117.872230 118 61ft 0kts
29-Oct-18 15:19 33.673825 -117.872230 118 61ft 0kts
29-Oct-18 15:20 33.673825 -117.872230 118 61ft 0kts
29-Oct-18 15:21 33.673825 -117.872230 118 61ft 0kts
29-Oct-18 15:22 33.673825 -117.872230 118 61ft 0kts
29-Oct-18 15:23 33.673825 -117.872230 118 61ft 0kts
29-Oct-18 15:24 33.673825 -117.872230 118 61ft 0kts
29-Oct-18 15:25 33.673825 -117.872230 118 61ft 0kts
29-Oct-18 15:26 33.673825 -117.872230 118 61ft 0kts
29-Oct-18 15:27 33.673825 -117.872230 118 61ft 0kts
29-Oct-18 15:28 33.673825 -117.872230 118 61ft 0kts
29-Oct-18 15:29 33.673825 -117.872229 118 61ft 0kts
29-Oct-18 15:30 33.673825 -117.872229 118 61ft 0kts
29-Oct-18 15:31 33.673825 -117.872229 118 61ft 0kts
29-Oct-18 15:32 33.673825 -117.872229 118 61ft 0kts
29-Oct-18 15:33 33.673825 -117.872229 118 61ft 0kts
29-Oct-18 15:35 33.673815 -117.872207 119 61ft 0kts
29-Oct-18 15:36 33.675440 -117.870478 28 61ft 11kts
29-Oct-18 15:37 33.678177 -117.868740 28 61ft 15kts
29-Oct-18 15:38 33.681602 -117.866772 29 61ft 9kts
29-Oct-18 15:39 33.681933 -117.866026 102 61ft 0kts
29-Oct-18 15:40 33.681933 -117.866026 102 61ft 0kts
29-Oct-18 15:41 33.681933 -117.866026 102 61ft 0kts
29-Oct-18 15:42 33.681499 -117.865202 175 61ft 7kts
29-Oct-18 15:43 33.656470 -117.881334 199 922ft 148kts
29-Oct-18 15:44 33.609939 -117.887451 183 2463ft 195kts
29-Oct-18 15:45 33.552691 -117.895351 185 3753ft 229kts
29-Oct-18 15:46 33.488162 -117.904329 185 4979ft 247kts
29-Oct-18 15:47 33.421974 -117.891210 142 4997ft 240kts
29-Oct-18 15:48 33.408185 -117.830375 32 5001ft 208kts
29-Oct-18 15:49 33.461019 -117.812013 14 5051ft 199kts
29-Oct-18 15:50 33.508527 -117.804426 341 6014ft 160kts
29-Oct-18 15:51 33.539778 -117.834820 320 6977ft 129kts
29-Oct-18 15:52 33.562445 -117.859866 322 8017ft 128kts
29-Oct-18 15:53 33.593857 -117.888630 330 8212ft 160kts
29-Oct-18 15:54 33.634886 -117.910824 341 8153ft 187kts
29-Oct-18 15:55 33.685951 -117.937923 328 8246ft 212kts
29-Oct-18 15:56 33.732403 -117.981913 310 8004ft 235kts
29-Oct-18 15:57 33.773152 -118.040678 313 7990ft 236kts
29-Oct-18 15:58 33.826937 -118.079975 335 7990ft 233kts
29-Oct-18 15:59 33.882500 -118.111741 336 7990ft 234kts
29-Oct-18 16:00 33.937423 -118.143350 336 7990ft 233kts
29-Oct-18 16:01 33.994254 -118.176100 335 7990ft 233kts
29-Oct-18 16:02 34.050446 -118.208502 336 7786ft 216kts
29-Oct-18 16:03 34.100059 -118.237225 336 7271ft 187kts
29-Oct-18 16:04 34.132085 -118.256192 334 6917ft 178kts
29-Oct-18 16:04 34.168349 -118.250237 47 6509ft 169kts
29-Oct-18 16:06 34.141008 -118.232723 251 5972ft 175kts
29-Oct-18 16:06 34.133996 -118.275286 262 5611ft 156kts
29-Oct-18 16:08 34.120482 -118.329613 226 4850ft 149kts
29-Oct-18 16:08 34.095327 -118.356849 218 4051ft 150kts
29-Oct-18 16:10 34.057297 -118.392005 215 1807ft 156kts
29-Oct-18 16:10 34.041955 -118.418798 243 987ft 101kts
29-Oct-18 16:11 34.023014 -118.442881 223 267ft 105kts
29-Oct-18 16:12 34.013342 -118.454530 302 139ft 6kts
29-Oct-18 16:13 34.013736 -118.454877 12 139ft 7kts
29-Oct-18 16:14 34.015458 -118.452854 47 139ft 2kts
29-Oct-18 16:15 34.015730 -118.453266 313 139ft 0kts
29-Oct-18 16:16 34.015730 -118.453266 313 139ft 0kts
29-Oct-18 16:17 34.015730 -118.453266 313 139ft 0kts
29-Oct-18 16:18 34.015730 -118.453266 313 139ft 0kts
29-Oct-18 16:19 34.015730 -118.453266 313 139ft 0kts
29-Oct-18 16:20 34.200290 -118.365980 89 781ft 0kts
29-Oct-18 16:21 34.200290 -118.365980 89 781ft 0kts
29-Oct-18 16:22 34.200290 -118.365980 89 781ft 0kts
29-Oct-18 16:23 34.200290 -118.365980 89 781ft 0kts
29-Oct-18 16:24 34.200290 -118.365980 89 781ft 0kts
29-Oct-18 16:25 34.200290 -118.365980 89 781ft 0kts
29-Oct-18 16:26 34.200290 -118.365980 89 781ft 0kts

Navigation Log

Ident Type
Flight plan parsing failed, navigation log unavailable